createdAt,value
2019-04-26T00:00:34.018Z,15.10
2019-04-26T00:03:05.305Z,14.80
2019-04-26T00:05:37.151Z,14.50
2019-04-26T00:08:09.265Z,14.50
2019-04-26T00:10:41.243Z,14.20
2019-04-26T00:13:28.193Z,13.90
2019-04-26T00:16:16.810Z,13.80
2019-04-26T00:18:46.650Z,13.60
2019-04-26T00:21:16.414Z,13.40
2019-04-26T00:23:46.450Z,13.20
2019-04-26T00:26:17.587Z,13.10
2019-04-26T00:28:47.460Z,13.10
2019-04-26T00:31:17.282Z,12.90
2019-04-26T00:33:47.148Z,12.50
2019-04-26T00:36:17.004Z,12.30
2019-04-26T00:38:46.746Z,12.00
2019-04-26T00:41:17.145Z,11.80
2019-04-26T00:43:46.884Z,11.60
2019-04-26T00:46:18.854Z,11.40
2019-04-26T00:48:49.683Z,11.20
2019-04-26T00:51:19.450Z,11.10
2019-04-26T00:53:50.183Z,11.00
2019-04-26T00:56:20.650Z,10.90
2019-04-26T00:58:51.189Z,10.80
2019-04-26T01:01:22.860Z,10.70
2019-04-26T01:03:52.813Z,10.70
2019-04-26T01:06:25.062Z,10.60
2019-04-26T01:08:54.790Z,10.60
2019-04-26T01:11:24.556Z,10.50
2019-04-26T01:13:54.279Z,10.50
2019-04-26T01:16:24.319Z,10.40
2019-04-26T01:18:55.021Z,10.30
2019-04-26T01:21:27.711Z,10.20
2019-04-26T01:24:00.434Z,10.10
2019-04-26T01:26:33.110Z,10.20
2019-04-26T01:29:05.850Z,10.20
2019-04-26T01:31:38.535Z,10.30
2019-04-26T01:34:08.284Z,10.50
2019-04-26T01:36:40.339Z,10.40
2019-04-26T01:39:12.271Z,10.20
2019-04-26T01:41:51.502Z,10.00
2019-04-26T01:44:31.613Z,9.70
2019-04-26T01:47:01.648Z,9.50
2019-04-26T01:49:32.457Z,9.50
2019-04-26T01:52:06.365Z,9.40
2019-04-26T01:54:39.040Z,9.50
2019-04-26T01:57:08.917Z,9.40
2019-04-26T01:59:42.328Z,9.40
2019-04-26T02:02:13.811Z,9.40
2019-04-26T02:04:45.212Z,9.30
2019-04-26T02:07:17.754Z,9.30
2019-04-26T02:09:47.490Z,9.50
2019-04-26T02:12:17.241Z,9.50
2019-04-26T02:14:46.996Z,9.50
2019-04-26T02:17:16.750Z,9.30
2019-04-26T02:19:46.566Z,9.20
2019-04-26T02:22:30.043Z,9.10
2019-04-26T02:24:59.906Z,9.10
2019-04-26T02:27:30.750Z,9.00
2019-04-26T02:30:00.944Z,9.00
2019-04-26T02:32:31.603Z,9.00
2019-04-26T02:35:03.024Z,8.90
2019-04-26T02:37:34.757Z,8.80
2019-04-26T02:40:07.083Z,8.90
2019-04-26T02:42:39.811Z,8.80
2019-04-26T02:45:22.972Z,8.80
2019-04-26T02:48:05.030Z,8.80
2019-04-26T02:50:38.548Z,8.90
2019-04-26T02:53:33.547Z,8.90
2019-04-26T02:56:15.576Z,8.90
2019-04-26T02:59:02.698Z,8.90
2019-04-26T03:01:35.690Z,8.90
2019-04-26T03:04:03.835Z,8.80
2019-04-26T03:06:36.769Z,8.90
2019-04-26T03:09:08.631Z,8.90
2019-04-26T03:11:56.655Z,8.90
2019-04-26T03:14:29.192Z,8.70
2019-04-26T03:17:15.606Z,8.60
2019-04-26T03:19:58.774Z,8.60
2019-04-26T03:22:40.827Z,8.70
2019-04-26T03:25:31.320Z,8.70
2019-04-26T03:28:16.253Z,8.80
2019-04-26T03:30:53.090Z,8.80
2019-04-26T03:33:34.115Z,8.90
2019-04-26T03:36:20.768Z,9.10
2019-04-26T03:39:04.166Z,9.40
2019-04-26T03:41:42.896Z,9.50
2019-04-26T03:44:25.469Z,9.50
2019-04-26T03:47:01.039Z,9.40
2019-04-26T03:49:35.713Z,9.50
2019-04-26T03:52:22.894Z,9.60
2019-04-26T03:54:58.290Z,9.70
2019-04-26T03:57:50.451Z,9.50
2019-04-26T04:00:23.665Z,9.60
2019-04-26T04:03:19.037Z,9.90
2019-04-26T04:05:53.452Z,10.10
2019-04-26T04:08:26.146Z,10.30
2019-04-26T04:11:10.900Z,10.40
2019-04-26T04:14:01.426Z,10.60
2019-04-26T04:16:39.329Z,10.90
2019-04-26T04:19:33.502Z,11.10
2019-04-26T04:22:09.130Z,11.30
2019-04-26T04:24:51.831Z,11.30
2019-04-26T04:27:30.387Z,11.30
2019-04-26T04:30:18.052Z,11.60
2019-04-26T04:33:20.682Z,11.80
2019-04-26T04:35:53.368Z,11.90
2019-04-26T04:38:44.676Z,12.50
2019-04-26T04:41:25.256Z,12.90
2019-04-26T04:44:05.252Z,13.20
2019-04-26T04:46:50.308Z,13.30
2019-04-26T04:49:36.661Z,13.40
2019-04-26T04:52:24.594Z,13.60
2019-04-26T04:55:26.377Z,13.90
2019-04-26T04:58:01.662Z,14.40
2019-04-26T05:00:51.429Z,15.00
2019-04-26T05:03:45.018Z,15.50
2019-04-26T05:06:40.080Z,16.50
2019-04-26T05:09:12.596Z,18.00
2019-04-26T05:11:51.882Z,19.50
2019-04-26T05:14:43.679Z,20.70
2019-04-26T05:17:19.807Z,21.60
2019-04-26T05:19:55.327Z,22.90
2019-04-26T05:22:51.192Z,22.30
2019-04-26T05:26:00.658Z,22.00
2019-04-26T05:28:37.856Z,21.90
2019-04-26T05:31:36.459Z,21.60
2019-04-26T05:34:13.607Z,21.40
2019-04-26T05:37:02.779Z,21.00
2019-04-26T05:39:51.228Z,20.80
2019-04-26T05:42:49.553Z,20.30
2019-04-26T05:45:43.370Z,20.10
2019-04-26T05:48:51.875Z,20.20
2019-04-26T05:51:32.234Z,20.50
2019-04-26T05:54:06.559Z,20.70
2019-04-26T05:57:02.682Z,21.10
2019-04-26T05:59:35.359Z,21.50
2019-04-26T06:02:43.052Z,21.40
2019-04-26T06:05:38.554Z,21.50
2019-04-26T06:08:31.335Z,20.90
2019-04-26T06:11:09.021Z,21.00
2019-04-26T06:13:55.649Z,20.50
2019-04-26T06:17:07.350Z,20.40
2019-04-26T06:20:22.779Z,20.10
2019-04-26T06:23:14.518Z,20.80
2019-04-26T06:25:57.133Z,20.80
2019-04-26T06:28:43.939Z,20.30
2019-04-26T06:31:25.865Z,20.30
2019-04-26T06:34:00.856Z,20.40
2019-04-26T06:36:35.547Z,20.30
2019-04-26T06:39:24.116Z,20.40
2019-04-26T06:42:09.325Z,20.80
2019-04-26T06:44:49.607Z,21.10
2019-04-26T06:47:41.703Z,21.10
2019-04-26T06:50:21.722Z,21.20
2019-04-26T06:52:58.122Z,21.10
2019-04-26T06:55:32.112Z,21.10
2019-04-26T06:58:33.417Z,20.90
2019-04-26T07:01:16.417Z,20.60
2019-04-26T07:03:49.264Z,20.50
2019-04-26T07:06:36.824Z,20.80
2019-04-26T07:09:11.737Z,21.00
2019-04-26T07:12:15.143Z,21.50
2019-04-26T07:15:13.103Z,21.60
2019-04-26T07:18:08.641Z,21.90
2019-04-26T07:20:44.047Z,22.20
2019-04-26T07:23:33.444Z,22.60
2019-04-26T07:26:22.657Z,23.20
2019-04-26T07:29:13.560Z,23.10
2019-04-26T07:31:55.512Z,22.40
2019-04-26T07:34:32.798Z,21.80
2019-04-26T07:37:21.996Z,21.50
2019-04-26T07:40:11.542Z,21.50
2019-04-26T07:43:12.622Z,21.60
2019-04-26T07:46:17.912Z,21.80
2019-04-26T07:48:50.594Z,22.00
2019-04-26T07:51:53.346Z,22.10
2019-04-26T07:54:50.406Z,22.20
2019-04-26T07:57:24.693Z,22.50
2019-04-26T08:00:10.871Z,23.00
2019-04-26T08:03:01.499Z,23.70
2019-04-26T08:05:45.164Z,24.00
2019-04-26T08:08:20.601Z,24.40
2019-04-26T08:11:04.407Z,25.50
2019-04-26T08:13:37.098Z,26.90
2019-04-26T08:16:28.629Z,27.10
2019-04-26T08:19:10.880Z,26.30
2019-04-26T08:21:48.158Z,27.30
2019-04-26T08:24:21.510Z,27.40
2019-04-26T08:27:08.297Z,27.90
2019-04-26T08:29:33.015Z,29.60
2019-04-26T08:32:06.989Z,29.80
2019-04-26T08:34:40.204Z,30.20
2019-04-26T08:37:25.289Z,30.60
2019-04-26T08:39:57.504Z,32.00
2019-04-26T08:42:29.219Z,30.90
2019-04-26T08:45:04.585Z,32.20
2019-04-26T08:47:40.839Z,32.50
2019-04-26T08:50:20.398Z,34.90
2019-04-26T08:52:52.350Z,34.70
2019-04-26T08:55:25.095Z,34.30
2019-04-26T08:57:57.780Z,33.00
2019-04-26T09:00:35.078Z,33.60
2019-04-26T09:03:27.485Z,34.70
2019-04-26T09:06:02.896Z,32.00
2019-04-26T09:08:35.582Z,33.10
2019-04-26T09:11:07.959Z,34.10
2019-04-26T09:13:40.644Z,34.40
2019-04-26T09:16:13.082Z,35.50
2019-04-26T09:18:47.947Z,34.00
2019-04-26T09:21:19.024Z,35.30
2019-04-26T09:24:08.285Z,33.90
2019-04-26T09:26:42.547Z,35.20
2019-04-26T09:29:12.440Z,35.20
2019-04-26T09:31:43.761Z,38.40
2019-04-26T09:34:15.880Z,40.40
2019-04-26T09:36:45.664Z,39.90
2019-04-26T09:39:16.974Z,39.80
2019-04-26T09:41:46.759Z,40.00
2019-04-26T09:44:18.060Z,35.50
2019-04-26T09:46:52.917Z,33.40
2019-04-26T09:49:37.379Z,35.00
2019-04-26T09:52:08.871Z,36.50
2019-04-26T09:54:38.631Z,36.10
2019-04-26T09:57:08.443Z,35.30
2019-04-26T09:59:39.995Z,35.30
2019-04-26T10:02:10.489Z,35.50
2019-04-26T10:04:40.234Z,36.70
2019-04-26T10:07:09.998Z,36.10
2019-04-26T10:09:39.858Z,34.90
2019-04-26T10:12:11.165Z,35.60
2019-04-26T10:14:46.527Z,38.40
2019-04-26T10:17:18.894Z,38.00
2019-04-26T10:19:50.239Z,37.40
2019-04-26T10:22:20.576Z,34.10
2019-04-26T10:24:50.332Z,31.60
2019-04-26T10:27:20.099Z,31.80
2019-04-26T10:29:49.829Z,32.90
2019-04-26T10:32:21.650Z,33.50
2019-04-26T10:34:52.112Z,33.70
2019-04-26T10:37:22.992Z,33.70
2019-04-26T10:39:52.732Z,35.50
2019-04-26T10:42:22.695Z,35.00
2019-04-26T10:44:52.458Z,34.80
2019-04-26T10:47:22.202Z,35.90
2019-04-26T10:49:54.441Z,35.50
2019-04-26T10:52:45.699Z,33.20
2019-04-26T10:55:22.095Z,32.90
2019-04-26T10:57:56.387Z,32.60
2019-04-26T11:00:30.849Z,32.40
2019-04-26T11:03:04.459Z,31.30
2019-04-26T11:05:32.036Z,29.70
2019-04-26T11:08:02.627Z,29.70
2019-04-26T11:10:32.800Z,29.50
2019-04-26T11:13:02.541Z,30.90
2019-04-26T11:15:34.029Z,30.90
2019-04-26T11:18:04.047Z,30.70
2019-04-26T11:20:33.836Z,30.60
2019-04-26T11:23:03.592Z,31.30
2019-04-26T11:25:34.454Z,31.30
2019-04-26T11:28:04.575Z,30.10
2019-04-26T11:30:34.679Z,29.60
2019-04-26T11:33:07.259Z,29.20
2019-04-26T11:35:35.894Z,29.50
2019-04-26T11:38:05.828Z,29.40
2019-04-26T11:40:35.595Z,29.60
2019-04-26T11:43:05.524Z,29.60
2019-04-26T11:45:35.282Z,29.50
2019-04-26T11:48:05.023Z,29.20
2019-04-26T11:50:37.544Z,29.40
2019-04-26T11:53:10.182Z,29.70
2019-04-26T11:55:38.843Z,30.00
2019-04-26T11:58:08.665Z,29.90
2019-04-26T12:00:40.029Z,29.00
2019-04-26T12:03:09.816Z,28.80
2019-04-26T12:05:44.097Z,28.50
2019-04-26T12:08:15.429Z,28.10
2019-04-26T12:10:45.912Z,27.90
2019-04-26T12:13:16.826Z,28.10
2019-04-26T12:15:46.668Z,27.70
2019-04-26T12:18:16.455Z,27.10
2019-04-26T12:20:46.472Z,26.70
2019-04-26T12:23:20.526Z,26.80
2019-04-26T12:25:48.556Z,26.70
2019-04-26T12:28:19.314Z,27.00
2019-04-26T12:30:49.063Z,27.00
2019-04-26T12:33:18.819Z,27.30
2019-04-26T12:35:56.609Z,27.50
2019-04-26T12:38:19.951Z,27.80
2019-04-26T12:40:49.692Z,27.70
2019-04-26T12:43:19.988Z,27.40
2019-04-26T12:45:52.579Z,26.90
2019-04-26T12:48:27.578Z,26.90
2019-04-26T12:50:57.335Z,26.70
2019-04-26T12:53:31.294Z,27.00
2019-04-26T12:55:59.756Z,27.10
2019-04-26T12:58:29.506Z,26.90
2019-04-26T13:01:00.570Z,26.70
2019-04-26T13:03:31.221Z,26.80
2019-04-26T13:06:00.960Z,27.10
2019-04-26T13:08:30.800Z,27.10
2019-04-26T13:11:14.872Z,27.10
2019-04-26T13:13:41.289Z,27.50
2019-04-26T13:16:15.587Z,27.60
2019-04-26T13:18:46.914Z,27.30
2019-04-26T13:21:16.772Z,27.20
2019-04-26T13:23:48.289Z,26.70
2019-04-26T13:26:18.115Z,26.50
2019-04-26T13:28:47.900Z,26.60
2019-04-26T13:31:17.644Z,26.80
2019-04-26T13:33:47.409Z,27.00
2019-04-26T13:36:17.171Z,26.90
2019-04-26T13:38:46.934Z,26.90
2019-04-26T13:41:16.707Z,26.50
2019-04-26T13:43:46.449Z,26.50
2019-04-26T13:46:26.539Z,26.40
2019-04-26T13:49:07.154Z,26.50
2019-04-26T13:51:38.774Z,26.70
2019-04-26T13:54:28.949Z,26.70
2019-04-26T13:56:58.729Z,26.70
2019-04-26T13:59:31.713Z,27.00
2019-04-26T14:02:10.915Z,27.10
2019-04-26T14:04:31.358Z,27.20
2019-04-26T14:07:02.001Z,27.10
2019-04-26T14:09:31.734Z,26.80
2019-04-26T14:12:03.309Z,27.00
2019-04-26T14:14:34.247Z,27.20
2019-04-26T14:17:04.246Z,27.50
2019-04-26T14:19:33.996Z,27.40
2019-04-26T14:22:07.138Z,27.10
2019-04-26T14:24:40.605Z,27.10
2019-04-26T14:27:15.116Z,27.10
2019-04-26T14:29:44.331Z,27.20
2019-04-26T14:32:14.080Z,26.80
2019-04-26T14:34:45.246Z,26.50
2019-04-26T14:37:16.578Z,26.60
2019-04-26T14:39:50.598Z,26.70
2019-04-26T14:42:33.085Z,26.50
2019-04-26T14:44:50.708Z,26.50
2019-04-26T14:47:20.520Z,26.60
2019-04-26T14:49:53.467Z,26.50
2019-04-26T14:52:24.015Z,26.40
2019-04-26T14:54:53.600Z,26.30
2019-04-26T14:57:29.029Z,26.10
2019-04-26T14:59:56.897Z,26.30
2019-04-26T15:02:47.361Z,26.10
2019-04-26T15:05:34.264Z,25.90
2019-04-26T15:08:09.415Z,26.00
2019-04-26T15:10:43.443Z,25.90
2019-04-26T15:13:17.355Z,26.00
2019-04-26T15:15:39.551Z,26.00
2019-04-26T15:18:09.295Z,26.00
2019-04-26T15:20:39.040Z,25.80
2019-04-26T15:23:08.800Z,25.80
2019-04-26T15:25:41.331Z,25.60
2019-04-26T15:28:13.673Z,25.60
2019-04-26T15:30:46.658Z,25.60
2019-04-26T15:33:14.028Z,25.60
2019-04-26T15:35:44.339Z,25.70
2019-04-26T15:38:14.101Z,25.80
2019-04-26T15:41:00.495Z,25.80
2019-04-26T15:43:32.706Z,25.80
2019-04-26T15:46:12.438Z,25.60
2019-04-26T15:48:54.506Z,25.50
2019-04-26T15:51:28.151Z,25.50
2019-04-26T15:53:57.951Z,25.40
2019-04-26T15:56:28.695Z,25.40
2019-04-26T15:58:58.483Z,25.50
2019-04-26T16:01:29.227Z,25.40
2019-04-26T16:03:58.968Z,25.40
2019-04-26T16:06:28.734Z,25.40
2019-04-26T16:08:58.475Z,25.30
2019-04-26T16:11:28.233Z,25.30
2019-04-26T16:13:57.973Z,25.20
2019-04-26T16:16:29.143Z,25.20
2019-04-26T16:18:59.075Z,24.90
2019-04-26T16:21:29.739Z,24.90
2019-04-26T16:23:59.461Z,24.90
2019-04-26T16:26:29.240Z,24.80
2019-04-26T16:29:03.518Z,24.60
2019-04-26T16:31:52.789Z,24.50
2019-04-26T16:34:23.838Z,24.30
2019-04-26T16:36:53.633Z,24.20
2019-04-26T16:39:24.788Z,24.10
2019-04-26T16:41:54.787Z,24.10
2019-04-26T16:44:29.562Z,24.10
2019-04-26T16:47:01.435Z,24.10
2019-04-26T16:49:27.334Z,24.10
2019-04-26T16:52:01.842Z,24.10
2019-04-26T16:54:28.600Z,24.10
2019-04-26T16:56:58.838Z,24.00
2019-04-26T16:59:29.796Z,23.90
2019-04-26T17:02:02.464Z,23.80
2019-04-26T17:04:35.905Z,23.70
2019-04-26T17:07:05.018Z,23.40
2019-04-26T17:09:54.433Z,23.30
2019-04-26T17:12:10.418Z,23.10
2019-04-26T17:14:40.570Z,22.90
2019-04-26T17:17:10.859Z,22.70
2019-04-26T17:19:40.803Z,22.60
2019-04-26T17:22:15.642Z,22.40
2019-04-26T17:24:48.978Z,22.20
2019-04-26T17:27:20.674Z,22.00
2019-04-26T17:29:50.416Z,21.60
2019-04-26T17:32:20.178Z,21.30
2019-04-26T17:34:52.194Z,21.00
2019-04-26T17:37:25.769Z,20.90
2019-04-26T17:39:55.417Z,20.60
2019-04-26T17:42:25.169Z,20.40
2019-04-26T17:44:57.544Z,20.10
2019-04-26T17:47:28.357Z,19.90
2019-04-26T17:50:04.458Z,19.70
2019-04-26T17:52:35.879Z,19.70
2019-04-26T17:55:01.416Z,19.70
2019-04-26T17:57:34.743Z,19.90
2019-04-26T18:00:08.002Z,20.00
2019-04-26T18:02:41.940Z,20.10
2019-04-26T18:05:07.334Z,20.50
2019-04-26T18:07:42.997Z,20.60
2019-04-26T18:10:10.270Z,20.70
2019-04-26T18:12:41.002Z,20.80
2019-04-26T18:15:14.629Z,21.20
2019-04-26T18:17:44.210Z,21.30
2019-04-26T18:20:33.528Z,21.50
2019-04-26T18:23:05.629Z,21.70
2019-04-26T18:25:36.325Z,21.80
2019-04-26T18:28:08.714Z,21.80
2019-04-26T18:30:40.323Z,21.70
2019-04-26T18:33:09.771Z,21.60
2019-04-26T18:35:41.784Z,21.30
2019-04-26T18:38:12.522Z,21.20
2019-04-26T18:40:59.896Z,20.90
2019-04-26T18:43:18.861Z,20.70
2019-04-26T18:45:46.882Z,20.50
2019-04-26T18:48:16.648Z,20.20
2019-04-26T18:50:46.409Z,19.90
2019-04-26T18:53:19.634Z,19.70
2019-04-26T18:55:50.731Z,19.50
2019-04-26T18:58:20.524Z,19.30
2019-04-26T19:00:57.500Z,19.40
2019-04-26T19:03:29.952Z,19.30
2019-04-26T19:05:58.549Z,19.20
2019-04-26T19:08:28.931Z,18.90
2019-04-26T19:11:01.364Z,18.70
2019-04-26T19:13:36.558Z,18.40
2019-04-26T19:16:10.516Z,18.30
2019-04-26T19:18:52.556Z,18.10
2019-04-26T19:21:38.850Z,18.00
2019-04-26T19:24:07.269Z,17.70
2019-04-26T19:26:35.827Z,17.60
2019-04-26T19:29:15.429Z,17.50
2019-04-26T19:31:36.976Z,17.50
2019-04-26T19:34:06.744Z,17.40
2019-04-26T19:36:36.500Z,17.40
2019-04-26T19:39:07.902Z,17.30
2019-04-26T19:41:39.200Z,17.20
2019-04-26T19:44:08.983Z,17.10
2019-04-26T19:46:58.199Z,17.00
2019-04-26T19:49:44.460Z,16.90
2019-04-26T19:52:15.779Z,16.70
2019-04-26T19:54:50.403Z,16.70
2019-04-26T19:57:23.962Z,16.60
2019-04-26T19:59:53.900Z,16.50
2019-04-26T20:02:26.821Z,16.50
2019-04-26T20:04:55.037Z,16.40
2019-04-26T20:07:28.316Z,16.50
2019-04-26T20:09:56.332Z,16.40
2019-04-26T20:12:29.434Z,16.30
2019-04-26T20:14:58.949Z,16.20
2019-04-26T20:17:28.688Z,16.10
2019-04-26T20:19:58.443Z,16.00
2019-04-26T20:22:30.139Z,16.00
2019-04-26T20:24:59.550Z,15.80
2019-04-26T20:27:29.320Z,15.90
2019-04-26T20:29:59.055Z,15.90
2019-04-26T20:32:33.116Z,16.20
2019-04-26T20:35:13.365Z,16.80
2019-04-26T20:37:45.125Z,17.20
2019-04-26T20:40:22.155Z,17.50
2019-04-26T20:42:51.216Z,17.90
2019-04-26T20:45:21.704Z,18.50
2019-04-26T20:47:55.490Z,18.80
2019-04-26T20:50:23.029Z,18.70
2019-04-26T20:52:54.037Z,18.60
2019-04-26T20:55:30.214Z,18.70
2019-04-26T20:57:55.543Z,18.80
2019-04-26T21:00:25.311Z,19.10
2019-04-26T21:03:01.307Z,18.90
2019-04-26T21:05:26.531Z,18.90
2019-04-26T21:07:56.291Z,19.20
2019-04-26T21:10:26.051Z,19.00
2019-04-26T21:12:55.801Z,19.00
2019-04-26T21:15:25.533Z,19.00
2019-04-26T21:17:56.711Z,19.00
2019-04-26T21:20:27.672Z,18.90
2019-04-26T21:23:02.285Z,18.80
2019-04-26T21:25:32.477Z,18.80
2019-04-26T21:28:07.959Z,18.80
2019-04-26T21:30:51.617Z,18.70
2019-04-26T21:33:23.982Z,18.70
2019-04-26T21:36:07.429Z,18.80
2019-04-26T21:38:43.947Z,18.80
2019-04-26T21:41:18.183Z,18.80
2019-04-26T21:43:47.935Z,18.80
2019-04-26T21:46:19.087Z,18.80
2019-04-26T21:48:49.086Z,18.60
2019-04-26T21:51:18.835Z,18.50
2019-04-26T21:53:48.594Z,18.50
2019-04-26T21:56:19.338Z,18.40
2019-04-26T21:58:49.112Z,18.50
2019-04-26T22:01:24.871Z,18.60
2019-04-26T22:03:57.027Z,18.50
2019-04-26T22:06:28.433Z,18.50
2019-04-26T22:09:02.799Z,18.50
2019-04-26T22:11:33.081Z,18.60
2019-04-26T22:14:13.196Z,18.60
2019-04-26T22:16:48.962Z,18.60
2019-04-26T22:19:27.924Z,18.70
2019-04-26T22:22:15.150Z,18.80
2019-04-26T22:24:50.428Z,18.70
2019-04-26T22:27:21.844Z,18.80
2019-04-26T22:29:54.541Z,18.80
2019-04-26T22:32:23.944Z,18.70
2019-04-26T22:34:54.560Z,18.90
2019-04-26T22:37:30.076Z,18.80
2019-04-26T22:39:55.823Z,18.80
2019-04-26T22:42:26.384Z,18.80
2019-04-26T22:44:57.940Z,18.80
2019-04-26T22:47:29.274Z,18.80
2019-04-26T22:49:59.448Z,18.80
2019-04-26T22:52:29.144Z,18.80
2019-04-26T22:54:58.983Z,18.80
2019-04-26T22:57:29.146Z,18.80
2019-04-26T22:59:58.884Z,18.80
2019-04-26T23:02:28.840Z,18.70
2019-04-26T23:05:00.502Z,18.80
2019-04-26T23:07:30.175Z,18.80
2019-04-26T23:09:59.911Z,18.90
2019-04-26T23:12:31.239Z,18.90
2019-04-26T23:15:18.952Z,18.90
2019-04-26T23:17:53.109Z,18.80
2019-04-26T23:20:37.937Z,18.60
2019-04-26T23:23:08.762Z,18.40
2019-04-26T23:25:38.672Z,18.40
2019-04-26T23:28:08.436Z,18.50
2019-04-26T23:30:38.180Z,18.40
2019-04-26T23:33:07.985Z,18.40
2019-04-26T23:35:43.783Z,18.20
2019-04-26T23:38:09.123Z,18.10
2019-04-26T23:40:38.868Z,18.10
2019-04-26T23:43:08.627Z,18.00
2019-04-26T23:45:42.000Z,17.80
2019-04-26T23:48:12.171Z,17.80
2019-04-26T23:50:42.847Z,17.60
2019-04-26T23:53:13.859Z,17.50
2019-04-26T23:55:45.173Z,17.60
2019-04-26T23:58:15.111Z,17.40
